1986 VERA (1986225N17134)


On this page: IBTrACS data - Map and Plots - Positions - Intensities - Original source data

Summary

Start Aug 13
End Sep 2
Basin WP
LMI 117 kt
Sources jtwc_wp
tokyo
cma
hko
td9636
td9636
jtwc_wp
In WMO? Yes
Previous storm 1986 TIP (WP)
Previous in basin 1986 TIP (WP)
Concurrent storms 1986 GEORGETTE (EP)
1986 TIP (WP)
1986 VERA (WP)
1986 CHARLEY (NA)
1986 WAYNE (WP)
1986 WAYNE (WP)
1986 HOWARD (EP)
1986 ISIS (EP)
1986 JAVIER (EP)
1986 TD0902 (WP)
1986 KAY (EP)
1986 MISSING (NA)
1986 MISSING (NA)
Next in basin 1986 WAYNE (WP)
Next storm 1986 CHARLEY (NA)

top of page IBTrACS Data: File Access

top of page HURSAT Data: File Access

Image of storm

top of page Plots:

Map of storm track will not appear if FTP is down
Time series of cyclone Maximum Sustained Wind will not appear if FTP is down
Time series of cyclone Minimum Central Pressure will not appear if FTP is down

top of page Track Data:Position

jtwc_wp tokyo cma hko td9636 td9636 jtwc_wp
Date Lat Lon Lat Lon Lat Lon Lat Lon Lat Lon Lat Lon Lat Lon
1986-08-13 00:00:00 17.0 133.5
1986-08-13 06:00:00 17.0 133.0
1986-08-13 12:00:00 17.0 132.4 17.0 131.0
1986-08-13 18:00:00 17.1 131.7 17.5 131.0
1986-08-14 00:00:00 17.2 131.2 17.5 131.0 17.8 131.1
1986-08-14 06:00:00 17.3 130.8 18.0 130.9 17.8 130.6
1986-08-14 12:00:00 17.4 130.4 18.0 130.0 17.9 130.1
1986-08-14 18:00:00 17.6 130.1 18.0 130.0 18.2 129.6
1986-08-15 00:00:00 17.8 129.8 18.0 129.0 18.5 129.3
1986-08-15 06:00:00 18.2 129.6 18.0 129.0 18.4 129.9 18.8 129.0
1986-08-15 12:00:00 18.5 129.5 17.5 128.0 18.6 129.9 19.0 129.0
1986-08-15 18:00:00 19.0 129.4 18.8 129.5 17.4 128.5 18.8 129.9 19.0 129.3
1986-08-16 00:00:00 18.9 129.6 19.1 129.7 17.5 129.0 19.0 129.7 18.9 129.6
1986-08-16 06:00:00 18.8 129.8 18.9 129.9 17.5 129.8 19.1 129.4 18.8 129.8
1986-08-16 12:00:00 18.6 129.9 18.6 130.0 17.6 130.5 18.8 129.1 18.6 129.9
1986-08-16 18:00:00 18.4 129.9 18.1 130.5 18.0 131.5 18.2 129.3 18.4 130.0
1986-08-17 00:00:00 18.2 129.8 18.1 132.0 18.5 132.5 18.1 131.4 18.2 129.8 19.9 136.0
1986-08-17 06:00:00 17.9 129.0 18.5 133.8 19.0 134.0 18.7 133.3 18.0 129.1 20.6 136.5
1986-08-17 12:00:00 17.8 128.0 19.5 135.2 20.3 135.2 19.9 135.1 17.8 128.0 21.3 137.0 21.3 137.0
1986-08-17 18:00:00 17.8 126.8 21.0 136.4 21.3 136.4 21.0 136.5 21.9 137.4 22.1 137.4
1986-08-18 00:00:00 22.0 137.1 22.3 137.5 22.1 137.3 22.5 137.6 22.5 137.6
1986-08-18 06:00:00 22.7 137.5 22.9 137.5 23.0 137.9 23.1 137.7 22.9 137.7
1986-08-18 12:00:00 23.4 137.9 23.5 137.9 23.5 137.9 23.5 137.9 23.5 137.9
1986-08-18 18:00:00 23.4 137.5 23.2 138.2 23.2 137.4 23.8 138.2 23.5 137.4
1986-08-19 00:00:00 22.7 137.9 22.7 137.9 22.6 137.9 23.8 138.7 22.7 137.9
jtwc_wp tokyo cma hko td9636 td9636 jtwc_wp
1986-08-19 06:00:00 22.6 139.2 22.7 138.2 22.4 138.4 23.4 139.4 22.6 138.8
1986-08-19 12:00:00 22.6 140.3 22.6 139.4 22.0 139.1 22.7 140.1 22.7 140.1
1986-08-19 18:00:00 21.9 140.9 21.9 140.5 21.6 140.2 22.0 140.8 22.4 141.0
1986-08-20 00:00:00 21.3 141.5 21.2 141.5 21.4 141.3 21.4 141.5 21.4 141.5
1986-08-20 06:00:00 21.3 142.1 21.3 142.1 21.4 141.9 21.2 142.0 21.3 142.0
1986-08-20 12:00:00 21.3 142.5 21.5 142.6 21.3 142.4 21.3 142.5 21.3 142.5
1986-08-20 18:00:00 21.3 143.0 21.3 143.1 21.3 142.9 21.3 142.9 21.3 143.0
1986-08-21 00:00:00 21.3 143.5 21.3 143.3 21.4 143.5 21.4 143.4 21.4 143.4
1986-08-21 06:00:00 21.5 144.0 21.6 144.2 21.5 144.2 21.5 144.0 21.5 144.1
1986-08-21 12:00:00 21.6 144.5 21.8 144.7 21.6 144.7 21.6 144.7 21.6 144.7
1986-08-21 18:00:00 21.8 145.0 21.9 145.1 21.8 145.2 21.7 145.3 21.7 145.2
1986-08-22 00:00:00 22.0 145.5 22.0 145.3 21.9 145.7 21.9 145.6 21.9 145.6
1986-08-22 06:00:00 22.4 145.3 22.1 145.6 22.0 145.7 22.1 145.6 22.1 145.7
1986-08-22 12:00:00 22.5 144.9 22.1 145.4 22.1 145.5 22.2 145.4 22.2 145.4
1986-08-22 18:00:00 22.3 144.6 22.1 145.4 22.1 145.2 22.2 145.0 22.2 145.0
1986-08-23 00:00:00 22.1 144.3 22.2 144.4 22.2 144.5 22.2 144.4 22.2 144.4
1986-08-23 06:00:00 22.1 143.5 22.5 143.4 22.2 143.6 22.2 143.5 22.1 143.4
1986-08-23 12:00:00 22.2 142.4 22.3 142.3 22.2 142.5 22.2 142.4 22.2 142.4
1986-08-23 18:00:00 22.2 141.3 22.2 140.9 22.2 141.0 22.2 141.3 22.2 141.0
1986-08-24 00:00:00 22.3 140.0 22.3 139.8 22.2 139.9 22.3 140.0 22.3 140.0
1986-08-24 06:00:00 22.5 138.6 23.0 138.6 22.6 138.6 22.6 138.7 22.8 138.7
1986-08-24 12:00:00 22.9 136.9 23.3 136.9 23.0 136.9 23.0 137.2 23.0 137.2
1986-08-24 18:00:00 23.4 135.3 23.6 135.6 23.4 135.2 23.4 135.4 23.4 135.3
1986-08-25 00:00:00 23.9 133.6 24.1 133.5 24.0 133.5 23.9 133.6 23.9 133.6
jtwc_wp tokyo cma hko td9636 td9636 jtwc_wp
1986-08-25 06:00:00 24.4 131.9 24.7 132.1 24.5 131.9 24.4 131.9 24.5 132.0
1986-08-25 12:00:00 25.1 130.1 25.2 130.3 25.0 130.2 25.0 130.3 25.0 130.3
1986-08-25 18:00:00 25.7 128.5 25.7 129.0 25.6 128.8 25.5 128.8 25.5 128.8
1986-08-26 00:00:00 26.2 127.2 26.2 127.3 26.1 127.3 26.1 127.5 26.1 127.5
1986-08-26 06:00:00 26.7 126.0 26.7 126.2 26.7 126.2 26.7 126.4 26.7 126.3
1986-08-26 12:00:00 27.3 125.3 27.2 125.3 27.4 125.4 27.3 125.5 27.3 125.5
1986-08-26 18:00:00 28.0 124.8 28.0 125.0 28.1 124.7 28.0 124.9 27.9 125.0
1986-08-27 00:00:00 28.9 124.4 29.1 124.4 29.0 124.4 28.8 124.6 28.8 124.6
1986-08-27 06:00:00 29.8 124.2 30.0 124.1 29.8 124.3 29.9 124.3 29.9 124.2
1986-08-27 12:00:00 30.8 124.3 30.8 124.2 30.8 124.3 31.1 124.3 31.1 124.3
1986-08-27 18:00:00 32.0 124.5 32.2 124.7 32.0 124.5 32.3 124.6 32.3 124.7
1986-08-28 00:00:00 33.9 125.1 33.6 125.1 33.9 125.1 33.7 125.3 33.7 125.3
1986-08-28 06:00:00 35.8 126.0 35.5 125.8 35.8 125.8 35.2 126.0 35.2 126.1
1986-08-28 12:00:00 38.0 127.8 37.4 126.4 37.7 127.1 36.7 127.1 36.7 127.1
1986-08-28 18:00:00 39.0 129.0 38.7 127.3 39.0 128.3 38.3 128.6 38.3 128.6
1986-08-29 00:00:00 40.0 130.0 40.2 129.3 39.9 130.4 39.9 130.4
1986-08-29 06:00:00 41.0 131.0 41.0 130.5 42.6 132.5
1986-08-29 12:00:00 42.0 132.0 42.0 131.4
1986-08-29 18:00:00 43.3 133.1 43.0 132.5
1986-08-30 00:00:00 44.6 134.4 44.0 134.0
1986-08-30 06:00:00 46.0 135.8 46.0 135.7
1986-08-30 12:00:00 47.2 137.0 47.5 136.0
1986-08-30 18:00:00 48.5 138.4 48.8 135.6
1986-08-31 00:00:00 49.9 139.9 49.2 134.8
jtwc_wp tokyo cma hko td9636 td9636 jtwc_wp
1986-08-31 06:00:00 51.3 141.5 50.1 135.8
1986-08-31 12:00:00 52.4 143.1
1986-08-31 18:00:00 53.4 144.6
1986-09-01 00:00:00 54.0 146.0
1986-09-01 06:00:00 54.5 147.2
1986-09-01 12:00:00 54.8 148.5
1986-09-01 18:00:00 55.0 150.0
1986-09-02 00:00:00 55.0 152.0

top of pageTrack Data:Intensity

jtwc_wp tokyo cma hko td9636 td9636 jtwc_wp
Date Wind Pres Wind Pres Wind Pres Wind Pres Wind Pres Wind Pres Wind Pres
1986-08-13 00:00:00 998.
1986-08-13 06:00:00 998.
1986-08-13 12:00:00 998. 29. 998.
1986-08-13 18:00:00 998. 29. 998.
1986-08-14 00:00:00 998. 29. 998.
1986-08-14 06:00:00 998. 29. 995.
1986-08-14 12:00:00 998. 29. 995.
1986-08-14 18:00:00 996. 29. 995.
1986-08-15 00:00:00 996. 29. 995.
1986-08-15 06:00:00 994. 29. 993. 25. 995.
1986-08-15 12:00:00 994. 39. 992. 30. 993.
1986-08-15 18:00:00 30. 35. 992. 39. 992. 30. 992.
1986-08-16 00:00:00 35. 35. 990. 39. 990. 35. 990. 35.
1986-08-16 06:00:00 35. 35. 985. 49. 990. 35. 990. 35.
1986-08-16 12:00:00 35. 45. 985. 49. 990. 35. 990. 35.
1986-08-16 18:00:00 40. 45. 985. 49. 990. 40. 990. 35.
1986-08-17 00:00:00 40. 45. 980. 58. 988. 40. 990. 40.
1986-08-17 06:00:00 30. 45. 980. 58. 988. 40. 990. 40.
1986-08-17 12:00:00 25. 45. 980. 49. 990. 40. 989. 25. 30. 30.
1986-08-17 18:00:00 25. 45. 985. 49. 990. 40. 988. 30. 35.
1986-08-18 00:00:00 45. 985. 49. 990. 40. 986. 40. 40.
1986-08-18 06:00:00 45. 985. 49. 990. 45. 985. 40. 40.
1986-08-18 12:00:00 45. 985. 49. 985. 45. 984. 45. 45.
1986-08-18 18:00:00 45. 985. 49. 985. 45. 984. 45. 45.
1986-08-19 00:00:00 45. 985. 49. 985. 45. 982. 50. 50.
jtwc_wp tokyo cma hko td9636 td9636 jtwc_wp
1986-08-19 06:00:00 45. 980. 49. 985. 45. 980. 50. 50.
1986-08-19 12:00:00 45. 975. 49. 980. 45. 975. 50. 50.
1986-08-19 18:00:00 60. 970. 58. 972. 55. 970. 50. 55.
1986-08-20 00:00:00 65. 965. 68. 967. 65. 970. 65. 65.
1986-08-20 06:00:00 65. 965. 68. 965. 65. 965. 65. 70.
1986-08-20 12:00:00 65. 960. 68. 962. 65. 965. 75. 75.
1986-08-20 18:00:00 70. 960. 78. 960. 70. 960. 75. 80.
1986-08-21 00:00:00 70. 955. 78. 954. 75. 955. 85. 85.
1986-08-21 06:00:00 75. 950. 97. 948. 80. 950. 85. 95.
1986-08-21 12:00:00 85. 945. 97. 944. 85. 945. 100. 100.
1986-08-21 18:00:00 85. 935. 107. 935. 90. 935. 100. 105.
1986-08-22 00:00:00 90. 925. 117. 923. 100. 923. 110. 110.
1986-08-22 06:00:00 90. 925. 117. 925. 100. 925. 110. 110.
1986-08-22 12:00:00 90. 930. 117. 930. 95. 930. 105. 105.
1986-08-22 18:00:00 90. 935. 107. 937. 90. 935. 105. 105.
1986-08-23 00:00:00 90. 940. 97. 946. 90. 940. 100. 100.
1986-08-23 06:00:00 80. 945. 97. 946. 85. 945. 100. 95.
1986-08-23 12:00:00 80. 945. 97. 946. 85. 945. 95. 95.
1986-08-23 18:00:00 80. 945. 97. 945. 85. 945. 95. 95.
1986-08-24 00:00:00 80. 945. 97. 944. 85. 945. 90. 90.
1986-08-24 06:00:00 80. 945. 97. 940. 90. 940. 90. 90.
1986-08-24 12:00:00 85. 940. 97. 943. 90. 940. 90. 90.
1986-08-24 18:00:00 85. 945. 87. 946. 85. 945. 90. 90.
1986-08-25 00:00:00 80. 950. 87. 950. 85. 950. 90. 90.
jtwc_wp tokyo cma hko td9636 td9636 jtwc_wp
1986-08-25 06:00:00 80. 950. 87. 950. 85. 950. 90. 90.
1986-08-25 12:00:00 85. 950. 87. 948. 80. 950. 90. 90.
1986-08-25 18:00:00 85. 950. 87. 950. 80. 950. 90. 85.
1986-08-26 00:00:00 85. 950. 78. 952. 80. 950. 85. 85.
1986-08-26 06:00:00 80. 950. 78. 952. 80. 955. 85. 85.
1986-08-26 12:00:00 75. 950. 78. 952. 80. 955. 90. 90.
1986-08-26 18:00:00 75. 955. 78. 955. 80. 955. 90. 85.
1986-08-27 00:00:00 75. 955. 78. 955. 75. 960. 80. 80.
1986-08-27 06:00:00 75. 960. 78. 960. 75. 960. 80. 75.
1986-08-27 12:00:00 75. 960. 78. 960. 75. 960. 70. 70.
1986-08-27 18:00:00 70. 960. 68. 965. 70. 960. 70. 65.
1986-08-28 00:00:00 65. 960. 68. 965. 65. 965. 65. 65.
1986-08-28 06:00:00 65. 965. 58. 970. 65. 965. 65. 60.
1986-08-28 12:00:00 55. 975. 58. 975. 55. 970. 50. 50.
1986-08-28 18:00:00 976. 49. 980. 45. 975. 50. 45.
1986-08-29 00:00:00 976. 49. 980. 40. 40.
1986-08-29 06:00:00 980. 39. 985. 30.
1986-08-29 12:00:00 984. 39. 985.
1986-08-29 18:00:00 988. 39. 985.
1986-08-30 00:00:00 988. 39. 988.
1986-08-30 06:00:00 990. 29. 990.
1986-08-30 12:00:00 992. 29. 995.
1986-08-30 18:00:00 994. 29. 995.
1986-08-31 00:00:00 996. 29. 997.
jtwc_wp tokyo cma hko td9636 td9636 jtwc_wp
1986-08-31 06:00:00 998. 23. 1000.
1986-08-31 12:00:00 998.
1986-08-31 18:00:00 998.
1986-09-01 00:00:00 998.
1986-09-01 06:00:00 998.
1986-09-01 12:00:00 998.
1986-09-01 18:00:00 1000.
1986-09-02 00:00:00 1004.

top of page Links to source data

Source Source file Format
jtwc_wp bwp121986.txt ATCF
tokyo bst_all.txt:Line=34928:VERA:8613 JMA text table
cma CH1986BST.txt:Storm=17:Vera CMA text table
hko tc-besttrack-data-current.txt:Line=17934:VERA HKO Text table
td9636 cons_worldwide_trop_cyclone_18710101-19891231-003:Line=30284 TD 9636
td9636 cons_worldwide_trop_cyclone_18710101-19891231-003:Line=30337 TD 9636
jtwc_wp bwp141986.txt ATCF